Time;durP1;ratioP1;P1;durP2;ratioP2;P2;SDS_P1;SDS_P2;PMS_P1;PMS_P2;Temp;Humidity;BMP_temperature;BMP_pressure;BME280_temperature;BME280_humidity;BME280_pressure;Samples;Min_cycle;Max_cycle;Signal;HPM_P1;HPM_P2
2021/03/19 00:00:59;;;;;;;13.65;1.30;;;6.20;99.90;;;;;;4995841;28;20227;-74
2021/03/19 00:03:25;;;;;;;0.50;0.50;;;6.20;99.90;;;;;;4995429;28;20208;-75
2021/03/19 00:05:51;;;;;;;0.30;0.30;;;6.10;99.90;;;;;;4995706;28;20177;-75
2021/03/19 00:08:16;;;;;;;0.20;0.20;;;6.00;99.90;;;;;;4995438;28;20237;-74
2021/03/19 00:10:42;;;;;;;0.20;0.20;;;6.10;99.90;;;;;;4995713;28;20173;-74
2021/03/19 00:13:09;;;;;;;0.20;0.20;;;6.20;99.90;;;;;;4995590;28;20651;-74
2021/03/19 00:15:35;;;;;;;4.75;1.85;;;6.10;99.90;;;;;;4995053;28;20169;-74
2021/03/19 00:18:02;;;;;;;0.22;0.22;;;6.10;99.90;;;;;;4995336;28;20561;-74
2021/03/19 00:20:33;;;;;;;0.20;0.20;;;6.10;99.90;;;;;;4995475;28;20244;-74
2021/03/19 00:22:58;;;;;;;0.30;0.30;;;6.10;99.90;;;;;;4995499;28;20164;-75
2021/03/19 00:25:24;;;;;;;0.30;0.30;;;6.10;99.90;;;;;;4995337;28;20169;-74
2021/03/19 00:27:50;;;;;;;0.20;0.20;;;6.10;99.90;;;;;;4995242;28;20619;-75
2021/03/19 00:30:16;;;;;;;0.30;0.30;;;6.00;99.90;;;;;;4995353;28;20157;-75
2021/03/19 00:32:44;;;;;;;1.15;1.05;;;6.00;99.90;;;;;;4995237;28;20176;-74
2021/03/19 00:35:11;;;;;;;0.32;0.32;;;5.90;99.90;;;;;;4995135;28;20240;-74
2021/03/19 00:37:37;;;;;;;0.40;0.40;;;5.90;99.90;;;;;;4995262;28;20217;-74
2021/03/19 00:40:09;;;;;;;0.22;0.22;;;5.90;99.90;;;;;;4995180;28;20200;-75
2021/03/19 00:42:35;;;;;;;0.57;0.57;;;5.90;99.90;;;;;;4995120;28;20201;-75
2021/03/19 00:45:02;;;;;;;0.20;0.20;;;6.00;99.90;;;;;;4995025;28;20651;-75
2021/03/19 00:47:29;;;;;;;2.58;1.15;;;6.00;99.90;;;;;;4995160;28;20244;-74
2021/03/19 00:49:54;;;;;;;4.47;1.38;;;6.00;99.90;;;;;;4994886;28;20161;-74
2021/03/19 00:52:20;;;;;;;0.30;0.30;;;6.00;99.90;;;;;;4994897;28;20247;-75
2021/03/19 00:54:45;;;;;;;2.03;1.27;;;5.90;99.90;;;;;;4994815;28;20204;-74
2021/03/19 00:57:11;;;;;;;0.20;0.20;;;6.00;99.90;;;;;;4994713;28;20189;-74
2021/03/19 00:59:36;;;;;;;0.20;0.20;;;5.90;99.90;;;;;;4994868;28;20683;-74
2021/03/19 01:02:02;;;;;;;0.30;0.30;;;5.90;99.90;;;;;;4994687;28;20176;-74
2021/03/19 01:04:28;;;;;;;0.65;0.65;;;5.70;99.90;;;;;;4994715;28;20153;-74
2021/03/19 01:06:53;;;;;;;0.20;0.20;;;5.70;99.90;;;;;;4994602;28;20213;-74
2021/03/19 01:09:21;;;;;;;1.45;1.10;;;5.90;99.90;;;;;;4994505;28;20568;-74
2021/03/19 01:11:48;;;;;;;0.30;0.30;;;6.10;99.90;;;;;;4994535;28;20200;-74
2021/03/19 01:14:15;;;;;;;0.20;0.20;;;6.10;99.90;;;;;;4994412;28;20288;-74
2021/03/19 01:16:41;;;;;;;0.55;0.55;;;6.10;99.90;;;;;;4994350;28;20293;-74
2021/03/19 01:19:07;;;;;;;2.00;0.60;;;6.00;99.90;;;;;;4994431;28;20629;-74
2021/03/19 01:21:33;;;;;;;1.95;1.75;;;5.90;99.90;;;;;;4994265;28;20644;-74
2021/03/19 01:23:58;;;;;;;0.25;0.25;;;5.90;99.90;;;;;;4994419;28;20176;-74
2021/03/19 01:26:24;;;;;;;0.20;0.20;;;5.80;99.90;;;;;;4994093;28;20201;-74
2021/03/19 01:28:50;;;;;;;0.40;0.40;;;5.90;99.90;;;;;;4994215;28;20576;-73
2021/03/19 01:31:15;;;;;;;0.98;0.98;;;5.80;99.90;;;;;;4994465;28;20252;-74
2021/03/19 01:33:41;;;;;;;0.40;0.40;;;5.60;99.90;;;;;;4994168;28;20642;-74
2021/03/19 01:36:07;;;;;;;7.68;0.77;;;5.30;99.90;;;;;;4994135;28;20169;-74
2021/03/19 01:38:38;;;;;;;0.25;0.25;;;5.40;99.90;;;;;;4994255;28;20177;-74
2021/03/19 01:41:06;;;;;;;0.50;0.50;;;5.40;99.90;;;;;;4994257;28;20168;-74
2021/03/19 01:43:54;;;;;;;0.73;0.73;;;5.30;99.90;;;;;;4976535;28;20639;-74
2021/03/19 01:46:56;;;;;;;0.60;0.60;;;5.30;99.90;;;;;;4993798;28;20206;-74
2021/03/19 01:49:59;;;;;;;1.10;0.75;;;5.30;99.90;;;;;;4993862;28;20197;-74
2021/03/19 01:53:04;;;;;;;0.20;0.20;;;5.00;99.90;;;;;;4993896;28;20164;-74
2021/03/19 01:56:07;;;;;;;0.60;0.60;;;5.20;99.90;;;;;;4993924;28;20579;-74
2021/03/19 01:59:10;;;;;;;24.33;0.82;;;5.30;99.90;;;;;;4976386;28;20177;-74
2021/03/19 02:02:13;;;;;;;0.20;0.20;;;5.40;99.90;;;;;;4993794;28;20640;-74
2021/03/19 02:05:23;;;;;;;2.22;1.58;;;5.50;99.90;;;;;;4993836;28;20165;-74
2021/03/19 02:08:26;;;;;;;0.20;0.20;;;5.30;99.90;;;;;;4956135;28;20232;-74
2021/03/19 02:11:29;;;;;;;0.20;0.20;;;5.10;99.90;;;;;;4993761;28;20193;-73
2021/03/19 02:14:32;;;;;;;0.20;0.20;;;5.10;99.90;;;;;;4993747;28;20169;-74
2021/03/19 02:17:35;;;;;;;0.38;0.38;;;5.10;99.90;;;;;;4993661;28;20189;-73
2021/03/19 02:20:38;;;;;;;0.30;0.30;;;5.00;99.90;;;;;;4976134;28;20652;-73
2021/03/19 02:23:41;;;;;;;0.45;0.45;;;4.90;99.90;;;;;;4993607;28;20173;-73
2021/03/19 02:26:44;;;;;;;0.20;0.20;;;4.90;99.90;;;;;;4993421;28;20227;-74
2021/03/19 02:29:48;;;;;;;0.20;0.20;;;4.80;99.90;;;;;;4993530;28;20169;-73
2021/03/19 02:32:25;;;;;;;0.20;0.20;;;4.90;99.90;;;;;;4976046;28;20219;-74
2021/03/19 02:35:01;;;;;;;0.20;0.20;;;4.80;99.90;;;;;;4993300;28;20192;-74
2021/03/19 02:37:32;;;;;;;0.50;0.50;;;4.80;99.90;;;;;;4994894;28;20225;-73
2021/03/19 02:39:58;;;;;;;0.20;0.20;;;4.80;99.90;;;;;;4997440;28;20176;-74
2021/03/19 02:42:26;;;;;;;0.32;0.32;;;4.80;99.90;;;;;;4997280;28;20169;-73
2021/03/19 02:44:52;;;;;;;2.92;1.08;;;4.80;99.90;;;;;;4997152;28;20227;-73
2021/03/19 02:47:18;;;;;;;0.38;0.38;;;4.90;99.90;;;;;;4997191;28;20292;-74
2021/03/19 02:49:44;;;;;;;0.40;0.40;;;5.00;99.90;;;;;;4997094;28;20308;-73
2021/03/19 02:52:11;;;;;;;0.40;0.40;;;4.80;99.90;;;;;;4979676;28;20248;-73
2021/03/19 02:54:36;;;;;;;0.38;0.38;;;4.70;99.90;;;;;;4997103;28;20166;-73
2021/03/19 02:57:02;;;;;;;0.30;0.30;;;4.70;99.90;;;;;;4996931;28;20243;-73
2021/03/19 02:59:28;;;;;;;0.22;0.22;;;4.70;99.90;;;;;;4996990;28;20320;-73
2021/03/19 03:01:54;;;;;;;0.20;0.20;;;4.60;99.90;;;;;;4996975;28;20216;-74
2021/03/19 03:04:19;;;;;;;0.20;0.20;;;4.60;99.90;;;;;;4996980;28;20169;-73
2021/03/19 03:06:54;;;;;;;0.40;0.40;;;4.60;99.90;;;;;;4996685;28;20287;-74
2021/03/19 03:09:23;;;;;;;1.00;0.63;;;4.70;99.90;;;;;;4996672;28;20217;-73
2021/03/19 03:11:50;;;;;;;1.10;1.10;;;4.70;99.90;;;;;;4996792;28;20189;-74
2021/03/19 03:14:18;;;;;;;0.38;0.38;;;4.70;99.90;;;;;;4996783;28;20610;-74
2021/03/19 03:16:45;;;;;;;0.40;0.40;;;4.60;99.90;;;;;;4996666;28;20280;-74
2021/03/19 03:19:18;;;;;;;0.50;0.50;;;4.70;99.90;;;;;;4996722;28;20227;-74
2021/03/19 03:21:44;;;;;;;0.32;0.32;;;4.70;99.90;;;;;;4996611;28;20161;-75
2021/03/19 03:24:10;;;;;;;0.40;0.40;;;4.60;99.90;;;;;;4996697;28;20193;-74
2021/03/19 03:26:36;;;;;;;0.25;0.25;;;4.50;99.90;;;;;;4996444;28;20204;-74
2021/03/19 03:29:04;;;;;;;3.70;2.42;;;4.40;99.90;;;;;;4996539;28;20706;-75
2021/03/19 03:31:29;;;;;;;1.38;0.90;;;4.60;99.90;;;;;;4996346;28;20216;-74
2021/03/19 03:33:55;;;;;;;0.50;0.50;;;4.60;99.90;;;;;;4996484;28;20565;-74
2021/03/19 03:36:22;;;;;;;1.05;1.05;;;4.50;99.90;;;;;;4978792;28;20177;-74
2021/03/19 03:38:47;;;;;;;0.55;0.55;;;4.30;99.90;;;;;;4996131;28;20184;-73
2021/03/19 03:41:19;;;;;;;0.75;0.75;;;4.20;99.90;;;;;;4978708;28;20169;-74
2021/03/19 03:43:46;;;;;;;0.30;0.30;;;4.30;99.90;;;;;;4996134;28;20566;-74
2021/03/19 03:46:21;;;;;;;0.20;0.20;;;4.20;99.90;;;;;;4996010;28;20172;-75
2021/03/19 03:48:47;;;;;;;0.22;0.22;;;4.20;99.90;;;;;;4995003;28;20169;-74
2021/03/19 03:51:13;;;;;;;0.40;0.40;;;4.10;99.90;;;;;;4996049;28;20240;-74
2021/03/19 03:53:40;;;;;;;0.20;0.20;;;4.00;99.90;;;;;;4996109;28;20248;-75
2021/03/19 03:56:07;;;;;;;0.22;0.22;;;4.20;99.90;;;;;;4995772;28;20212;-74
2021/03/19 03:58:33;;;;;;;0.28;0.28;;;4.30;99.90;;;;;;4995938;28;20657;-74
2021/03/19 04:00:59;;;;;;;1.23;1.13;;;4.20;99.90;;;;;;4995877;28;20156;-74
2021/03/19 04:03:24;;;;;;;0.40;0.40;;;4.00;99.90;;;;;;4995850;28;20598;-74
2021/03/19 04:05:50;;;;;;;1.05;1.05;;;4.00;99.90;;;;;;4995763;28;20240;-74
2021/03/19 04:08:20;;;;;;;0.50;0.50;;;4.10;99.90;;;;;;4995479;28;20232;-73
2021/03/19 04:10:47;;;;;;;0.35;0.35;;;4.00;99.90;;;;;;4995826;28;20692;-74
2021/03/19 04:13:13;;;;;;;0.50;0.50;;;4.10;99.90;;;;;;4995436;28;20185;-74
2021/03/19 04:15:39;;;;;;;0.67;0.67;;;4.10;99.90;;;;;;4995711;28;20161;-74
2021/03/19 04:18:10;;;;;;;0.30;0.30;;;4.10;99.90;;;;;;4995505;28;20509;-74
2021/03/19 04:20:37;;;;;;;0.30;0.30;;;3.90;99.90;;;;;;4995440;28;20655;-74
2021/03/19 04:23:04;;;;;;;0.68;0.68;;;3.80;99.90;;;;;;4995471;28;20169;-74
2021/03/19 04:25:30;;;;;;;0.60;0.60;;;3.90;99.90;;;;;;4995368;28;20173;-74
2021/03/19 04:28:02;;;;;;;0.45;0.45;;;4.00;99.90;;;;;;4977761;28;20243;-74
2021/03/19 04:30:32;;;;;;;0.45;0.45;;;4.10;99.90;;;;;;4995239;28;20158;-74
2021/03/19 04:32:59;;;;;;;0.20;0.20;;;4.00;99.90;;;;;;4995223;28;20174;-73
2021/03/19 04:35:26;;;;;;;0.63;0.63;;;4.20;99.90;;;;;;4977742;28;20165;-74
2021/03/19 04:37:58;;;;;;;0.80;0.80;;;4.20;99.90;;;;;;4995173;28;20205;-75
2021/03/19 04:40:25;;;;;;;0.30;0.30;;;4.10;99.90;;;;;;4995418;28;20156;-74
2021/03/19 04:42:52;;;;;;;0.30;0.30;;;4.00;99.90;;;;;;4994990;28;20196;-75
2021/03/19 04:45:18;;;;;;;0.45;0.45;;;4.10;99.90;;;;;;4994991;28;20186;-73
2021/03/19 04:47:44;;;;;;;1.95;1.52;;;4.00;99.90;;;;;;4994606;28;20215;-74
2021/03/19 04:50:12;;;;;;;0.40;0.40;;;3.80;99.90;;;;;;4994758;28;20169;-74
2021/03/19 04:52:38;;;;;;;0.50;0.50;;;3.80;99.90;;;;;;4994859;28;20201;-73
2021/03/19 04:55:05;;;;;;;0.30;0.30;;;3.70;99.90;;;;;;4994643;28;20629;-73
2021/03/19 04:57:31;;;;;;;0.32;0.32;;;3.70;99.90;;;;;;4994838;28;20269;-73
2021/03/19 04:59:58;;;;;;;0.85;0.85;;;3.80;99.90;;;;;;4994561;28;20165;-74
2021/03/19 05:02:38;;;;;;;0.57;0.57;;;3.70;99.90;;;;;;4994772;28;20208;-73
2021/03/19 05:05:06;;;;;;;0.47;0.47;;;3.70;99.90;;;;;;4977076;28;20177;-73
2021/03/19 05:07:32;;;;;;;0.50;0.50;;;3.70;99.90;;;;;;4994065;28;20767;-73
2021/03/19 05:12:31;;;;;;;0.55;0.55;;;3.60;99.90;;;;;;5012978;28;20220;-79
2021/03/19 05:14:57;;;;;;;1.02;0.95;;;3.60;99.90;;;;;;5014414;28;20183;-80
2021/03/19 05:17:22;;;;;;;0.43;0.43;;;3.60;99.90;;;;;;5003656;28;20193;-79
2021/03/19 05:19:48;;;;;;;0.28;0.28;;;3.50;99.90;;;;;;4994440;28;20176;-79
2021/03/19 05:22:14;;;;;;;0.32;0.32;;;3.60;99.90;;;;;;4994545;28;20166;-78
2021/03/19 05:24:40;;;;;;;0.82;0.82;;;3.50;99.90;;;;;;4976706;28;20169;-79
2021/03/19 05:27:06;;;;;;;1.20;1.02;;;3.70;99.90;;;;;;4993832;28;20217;-80
2021/03/19 05:29:31;;;;;;;0.50;0.50;;;3.80;99.90;;;;;;4994093;28;20177;-80
2021/03/19 05:31:57;;;;;;;0.20;0.20;;;3.80;99.90;;;;;;4994120;28;20169;-78
2021/03/19 05:34:22;;;;;;;0.30;0.30;;;3.70;99.90;;;;;;4994301;28;20168;-79
2021/03/19 05:36:48;;;;;;;0.55;0.55;;;3.50;99.90;;;;;;4994110;28;20189;-77
2021/03/19 05:39:14;;;;;;;0.30;0.30;;;3.50;99.90;;;;;;4993809;28;20204;-75
2021/03/19 05:41:42;;;;;;;0.65;0.65;;;3.60;99.90;;;;;;4994312;28;20184;-78
2021/03/19 05:44:13;;;;;;;1.00;1.00;;;3.50;99.90;;;;;;4994159;28;20244;-78
2021/03/19 05:46:43;;;;;;;0.20;0.20;;;3.40;99.90;;;;;;4993878;28;20208;-80
2021/03/19 05:49:09;;;;;;;0.40;0.40;;;3.30;99.90;;;;;;4994071;28;20169;-76
2021/03/19 05:51:47;;;;;;;1.95;1.85;;;3.40;99.90;;;;;;4993955;28;20228;-79
2021/03/19 05:54:35;;;;;;;0.28;0.28;;;3.50;99.90;;;;;;4993999;28;20161;-80
2021/03/19 05:57:04;;;;;;;0.93;0.88;;;3.40;99.90;;;;;;4993466;28;20285;-79
2021/03/19 05:59:34;;;;;;;1.33;1.23;;;3.20;99.90;;;;;;4993741;28;20240;-79
2021/03/19 06:02:00;;;;;;;1.27;0.75;;;3.30;99.90;;;;;;4976252;28;20176;-79
2021/03/19 06:04:28;;;;;;;1.27;0.90;;;3.30;99.90;;;;;;4993477;28;20174;-79
2021/03/19 06:07:01;;;;;;;0.50;0.50;;;3.30;99.90;;;;;;4993601;28;20289;-78
2021/03/19 06:09:29;;;;;;;0.57;0.57;;;3.40;99.90;;;;;;4993661;28;20207;-79
2021/03/19 06:12:21;;;;;;;0.30;0.30;;;3.30;99.90;;;;;;4972391;28;20230;-79
2021/03/19 06:14:50;;;;;;;0.50;0.50;;;3.30;99.90;;;;;;4974092;28;20209;-80
2021/03/19 06:17:41;;;;;;;0.40;0.40;;;3.30;99.90;;;;;;4974249;28;20229;-80
2021/03/19 06:20:13;;;;;;;0.27;0.27;;;3.40;99.90;;;;;;4974370;28;20166;-80
2021/03/19 06:22:46;;;;;;;1.03;1.03;;;3.30;99.90;;;;;;4974093;28;20248;-81
2021/03/19 06:25:25;;;;;;;0.40;0.40;;;3.30;99.90;;;;;;4974165;28;20174;-79
2021/03/19 06:27:58;;;;;;;0.30;0.30;;;3.20;99.90;;;;;;4976477;28;20509;-78
2021/03/19 06:30:30;;;;;;;0.50;0.50;;;3.20;99.90;;;;;;4974081;28;20188;-75
2021/03/19 06:33:13;;;;;;;1.57;1.47;;;3.30;99.90;;;;;;4974202;28;20189;-76
2021/03/19 06:36:19;;;;;;;0.20;0.20;;;3.40;99.90;;;;;;4974177;28;20168;-77
2021/03/19 06:39:02;;;;;;;1.00;0.90;;;3.40;99.90;;;;;;4973964;28;20201;-76
2021/03/19 06:41:38;;;;;;;2.57;1.90;;;3.30;99.90;;;;;;4974509;28;20252;-76
2021/03/19 06:44:20;;;;;;;1.13;0.90;;;3.40;99.90;;;;;;4974217;28;20191;-78
2021/03/19 06:46:50;;;;;;;0.43;0.43;;;3.30;99.90;;;;;;4972600;28;20205;-80
2021/03/19 06:49:17;;;;;;;0.80;0.80;;;3.40;99.90;;;;;;4974034;28;20254;-79
2021/03/19 06:51:49;;;;;;;0.93;0.93;;;3.60;99.90;;;;;;4972800;28;20174;-79
2021/03/19 06:54:26;;;;;;;0.53;0.53;;;3.50;99.90;;;;;;4974389;28;20166;-78
2021/03/19 06:57:04;;;;;;;0.37;0.37;;;3.50;99.90;;;;;;4973922;28;20192;-76
2021/03/19 06:59:41;;;;;;;0.60;0.60;;;3.60;99.90;;;;;;4973994;28;20177;-80
2021/03/19 07:02:31;;;;;;;0.40;0.40;;;3.60;99.90;;;;;;4974028;28;20162;-77
2021/03/19 07:05:08;;;;;;;0.25;0.25;;;3.60;99.90;;;;;;4973667;28;20181;-76
2021/03/19 07:07:53;;;;;;;0.60;0.60;;;3.60;99.90;;;;;;4973820;28;20201;-79
2021/03/19 07:10:36;;;;;;;0.45;0.45;;;3.70;99.90;;;;;;4975532;28;20175;-77
2021/03/19 07:13:45;;;;;;;0.88;0.88;;;3.80;99.90;;;;;;4993045;28;20375;-78
2021/03/19 07:16:21;;;;;;;0.30;0.30;;;3.80;99.90;;;;;;4993627;28;20173;-78
2021/03/19 07:18:55;;;;;;;0.20;0.20;;;3.80;99.90;;;;;;5001156;28;20216;-74
2021/03/19 07:21:57;;;;;;;0.67;0.67;;;3.80;99.90;;;;;;5006359;28;20180;-74
2021/03/19 07:24:28;;;;;;;0.98;0.98;;;3.90;99.90;;;;;;5012166;28;20189;-77
2021/03/19 07:27:08;;;;;;;0.77;0.77;;;4.00;99.90;;;;;;4996980;28;20208;-78
2021/03/19 07:30:22;;;;;;;1.85;0.68;;;4.20;99.90;;;;;;4979592;28;20173;-79
2021/03/19 07:33:16;;;;;;;0.50;0.50;;;4.20;99.90;;;;;;4917685;29;20640;-78
2021/03/19 07:36:00;;;;;;;0.70;0.70;;;4.20;99.90;;;;;;4995332;28;20267;-78
2021/03/19 07:38:48;;;;;;;0.50;0.50;;;4.30;99.90;;;;;;4979324;28;20236;-78
2021/03/19 07:41:28;;;;;;;1.13;1.13;;;4.40;99.90;;;;;;4997350;28;20235;-79
2021/03/19 07:44:24;;;;;;;0.60;0.60;;;4.50;99.90;;;;;;4977343;28;20176;-79
2021/03/19 07:47:08;;;;;;;0.45;0.45;;;4.60;99.90;;;;;;4996245;28;20612;-78
2021/03/19 07:50:04;;;;;;;0.20;0.20;;;4.70;99.90;;;;;;5002009;28;20228;-78
2021/03/19 07:52:40;;;;;;;0.43;0.43;;;4.80;99.90;;;;;;4996775;28;20253;-81
2021/03/19 07:55:16;;;;;;;0.50;0.50;;;4.80;99.90;;;;;;4996661;28;20176;-79
2021/03/19 07:58:07;;;;;;;1.05;1.02;;;4.90;99.90;;;;;;4996760;28;20719;-78
2021/03/19 08:00:37;;;;;;;0.50;0.50;;;4.90;99.90;;;;;;4995209;28;20161;-78
2021/03/19 08:03:27;;;;;;;0.47;0.47;;;4.90;99.90;;;;;;4996026;28;20188;-80
2021/03/19 08:05:54;;;;;;;0.73;0.73;;;4.80;99.90;;;;;;4997658;28;20172;-79
2021/03/19 08:09:01;;;;;;;0.68;0.68;;;4.90;99.90;;;;;;4995966;28;20216;-79
2021/03/19 08:11:44;;;;;;;1.05;0.82;;;4.90;99.90;;;;;;4995642;28;20232;-79
2021/03/19 08:14:42;;;;;;;0.50;0.50;;;4.80;99.90;;;;;;4996010;28;20632;-80
2021/03/19 08:17:39;;;;;;;1.58;1.20;;;4.80;99.90;;;;;;4996460;28;20189;-80
2021/03/19 08:20:14;;;;;;;0.38;0.38;;;4.90;99.90;;;;;;4962541;28;20189;-80
2021/03/19 08:22:49;;;;;;;0.45;0.45;;;5.10;99.90;;;;;;4995931;28;20165;-79
2021/03/19 08:25:21;;;;;;;0.32;0.32;;;5.10;99.90;;;;;;4995746;28;20640;-83
2021/03/19 08:27:52;;;;;;;0.85;0.85;;;5.20;99.90;;;;;;4995557;28;20208;-80
2021/03/19 08:30:33;;;;;;;0.22;0.22;;;5.30;99.90;;;;;;4996111;28;20243;-80
2021/03/19 08:33:14;;;;;;;11.20;1.50;;;5.30;99.90;;;;;;4995231;28;20175;-76
2021/03/19 08:36:00;;;;;;;0.38;0.38;;;5.50;99.90;;;;;;4995166;28;20502;-78
2021/03/19 08:38:34;;;;;;;0.20;0.20;;;5.60;99.90;;;;;;4995321;28;20189;-79
2021/03/19 08:41:27;;;;;;;0.63;0.63;;;5.60;99.90;;;;;;4977555;28;20184;-77
2021/03/19 08:43:58;;;;;;;0.60;0.60;;;5.50;99.90;;;;;;4995290;28;20154;-80
2021/03/19 08:46:40;;;;;;;0.43;0.43;;;5.70;99.90;;;;;;4977254;28;20184;-78
2021/03/19 08:49:31;;;;;;;0.20;0.20;;;5.70;99.90;;;;;;4977479;28;20161;-76
2021/03/19 08:51:58;;;;;;;2.20;0.95;;;5.80;99.90;;;;;;4993878;28;20185;-77
2021/03/19 08:54:31;;;;;;;0.98;0.95;;;5.90;99.90;;;;;;4995047;28;20292;-77
2021/03/19 08:57:03;;;;;;;0.20;0.20;;;5.80;99.90;;;;;;4994617;28;20692;-78
2021/03/19 08:59:32;;;;;;;0.30;0.30;;;5.90;99.90;;;;;;4995036;28;20256;-79
2021/03/19 09:02:07;;;;;;;0.30;0.30;;;6.00;99.90;;;;;;4994721;28;20172;-79
2021/03/19 09:04:57;;;;;;;1.00;1.00;;;6.20;99.90;;;;;;4994573;28;20172;-79
2021/03/19 09:07:28;;;;;;;0.20;0.20;;;6.20;99.90;;;;;;4993739;28;20205;-82
2021/03/19 09:10:07;;;;;;;0.30;0.30;;;6.10;99.90;;;;;;4994539;28;20228;-77
2021/03/19 09:12:55;;;;;;;0.60;0.60;;;6.20;99.90;;;;;;4993873;28;20207;-78
2021/03/19 09:15:21;;;;;;;0.30;0.30;;;6.20;99.90;;;;;;4994033;28;20508;-77
2021/03/19 09:17:56;;;;;;;1.20;0.85;;;6.10;99.90;;;;;;4993594;28;20248;-77
2021/03/19 09:20:37;;;;;;;0.30;0.30;;;6.20;99.90;;;;;;4993490;28;20180;-77
2021/03/19 09:23:11;;;;;;;0.52;0.52;;;6.20;99.90;;;;;;4983669;28;20188;-76
2021/03/19 09:25:39;;;;;;;0.60;0.60;;;6.40;99.90;;;;;;4985291;28;20632;-76
2021/03/19 09:28:25;;;;;;;0.20;0.20;;;6.60;99.90;;;;;;4989943;28;20224;-76
2021/03/19 09:31:30;;;;;;;0.20;0.20;;;6.70;99.90;;;;;;4975283;28;20637;-77
2021/03/19 09:34:00;;;;;;;0.40;0.40;;;6.60;99.90;;;;;;4975581;28;20189;-76
2021/03/19 09:36:53;;;;;;;0.30;0.30;;;6.60;99.90;;;;;;4974366;28;20204;-76
2021/03/19 09:39:43;;;;;;;0.40;0.40;;;6.70;99.90;;;;;;4974001;28;20174;-76
2021/03/19 09:42:28;;;;;;;0.20;0.20;;;6.90;99.90;;;;;;4972228;28;20642;-76
2021/03/19 09:45:00;;;;;;;0.25;0.25;;;7.10;99.90;;;;;;4967761;28;20180;-77
2021/03/19 09:47:34;;;;;;;0.10;0.10;;;7.30;99.90;;;;;;4972603;28;20300;-77
2021/03/19 09:50:10;;;;;;;0.20;0.20;;;7.40;99.90;;;;;;4975743;28;20555;-77
2021/03/19 09:52:37;;;;;;;1.70;0.63;;;7.30;99.90;;;;;;4991167;28;20248;-75
2021/03/19 09:55:18;;;;;;;0.47;0.47;;;7.70;99.90;;;;;;4985399;28;20208;-75
2021/03/19 09:57:45;;;;;;;0.50;0.50;;;7.80;99.90;;;;;;5003168;28;20287;-77
2021/03/19 10:00:13;;;;;;;1.55;1.15;;;7.90;99.90;;;;;;4993632;28;20534;-76
2021/03/19 10:02:41;;;;;;;0.20;0.20;;;7.70;99.90;;;;;;4972261;28;20169;-76
2021/03/19 10:05:23;;;;;;;0.20;0.20;;;7.40;99.90;;;;;;4981677;28;20531;-75
2021/03/19 10:07:53;;;;;;;2.72;0.75;;;7.10;99.90;;;;;;4993580;28;20332;-75
2021/03/19 10:10:26;;;;;;;0.70;0.70;;;7.20;99.90;;;;;;4992595;28;20169;-75
2021/03/19 10:13:23;;;;;;;0.20;0.20;;;7.20;99.90;;;;;;4992678;28;20672;-75
2021/03/19 10:15:58;;;;;;;1.08;0.60;;;7.20;99.90;;;;;;4988692;28;20591;-74
2021/03/19 10:18:24;;;;;;;2.70;1.48;;;7.20;99.90;;;;;;4991342;28;20181;-75
2021/03/19 10:20:59;;;;;;;0.88;0.88;;;7.30;99.90;;;;;;4993253;28;20644;-76
2021/03/19 10:23:32;;;;;;;0.38;0.38;;;7.40;99.90;;;;;;4992838;28;20169;-76
2021/03/19 10:26:19;;;;;;;0.20;0.20;;;7.60;99.90;;;;;;4990313;28;20256;-76
2021/03/19 10:28:51;;;;;;;0.95;0.93;;;7.70;99.90;;;;;;4991392;28;20271;-75
2021/03/19 10:31:24;;;;;;;0.85;0.40;;;7.90;99.90;;;;;;4992884;28;20158;-76
2021/03/19 10:34:15;;;;;;;0.20;0.20;;;7.70;99.90;;;;;;4993060;28;20165;-75
2021/03/19 10:37:20;;;;;;;1.10;0.57;;;7.60;99.90;;;;;;4973301;28;20653;-76
2021/03/19 10:39:55;;;;;;;0.57;0.57;;;7.70;99.90;;;;;;4973023;28;20190;-75
2021/03/19 10:42:42;;;;;;;0.50;0.50;;;7.90;99.90;;;;;;4973659;28;20637;-75
2021/03/19 10:45:16;;;;;;;0.20;0.20;;;7.90;99.90;;;;;;4973723;28;20225;-77
2021/03/19 10:47:51;;;;;;;0.30;0.30;;;7.90;99.90;;;;;;4956895;28;20213;-77
2021/03/19 10:50:50;;;;;;;0.45;0.45;;;7.90;99.90;;;;;;4956444;28;20178;-76
2021/03/19 10:53:19;;;;;;;0.30;0.30;;;8.00;99.90;;;;;;4973436;28;20617;-77
2021/03/19 10:55:48;;;;;;;0.50;0.50;;;8.20;99.90;;;;;;4973524;28;20799;-77
2021/03/19 10:58:20;;;;;;;0.60;0.60;;;8.40;99.90;;;;;;4984991;28;20702;-76
2021/03/19 11:00:49;;;;;;;0.20;0.20;;;8.20;99.90;;;;;;4996534;28;20172;-76
2021/03/19 11:03:31;;;;;;;0.20;0.20;;;8.10;99.90;;;;;;4996500;28;20177;-87
2021/03/19 11:06:07;;;;;;;0.20;0.20;;;8.10;99.90;;;;;;4995918;28;20193;-74
2021/03/19 11:08:33;;;;;;;0.40;0.40;;;8.20;99.90;;;;;;4996052;28;20264;-80
2021/03/19 11:10:59;;;;;;;0.30;0.30;;;8.20;99.90;;;;;;4996313;28;20238;-72
2021/03/19 11:13:37;;;;;;;7.53;0.95;;;8.10;99.90;;;;;;4996178;28;20185;-75
2021/03/19 11:16:06;;;;;;;0.20;0.20;;;8.20;99.90;;;;;;4996241;28;20244;-74
2021/03/19 11:18:39;;;;;;;1.00;0.80;;;8.10;99.90;;;;;;4995744;28;20173;-77
2021/03/19 11:21:08;;;;;;;0.57;0.57;;;8.00;99.90;;;;;;4996412;28;20586;-75
2021/03/19 11:23:38;;;;;;;0.30;0.30;;;7.90;99.90;;;;;;4996015;28;20173;-75
2021/03/19 11:26:20;;;;;;;0.30;0.30;;;8.00;99.90;;;;;;4996114;28;20696;-74
2021/03/19 11:28:47;;;;;;;0.20;0.20;;;8.10;99.90;;;;;;4996047;28;20191;-76
2021/03/19 11:31:40;;;;;;;0.45;0.45;;;8.20;99.90;;;;;;4996099;28;20609;-80
2021/03/19 11:34:28;;;;;;;2.65;1.20;;;8.30;99.90;;;;;;4993851;28;20691;-79
2021/03/19 11:37:08;;;;;;;0.30;0.25;;;8.20;99.90;;;;;;4995972;28;20192;-80
2021/03/19 11:39:52;;;;;;;0.57;0.57;;;8.20;99.90;;;;;;4995679;28;20177;-75
2021/03/19 11:42:23;;;;;;;0.22;0.22;;;8.40;99.90;;;;;;4995297;28;20656;-74
2021/03/19 11:44:52;;;;;;;0.45;0.32;;;8.50;99.90;;;;;;4995642;28;20525;-77
2021/03/19 11:47:40;;;;;;;0.20;0.20;;;8.50;99.90;;;;;;4995584;28;20223;-77
2021/03/19 11:50:12;;;;;;;0.40;0.40;;;8.60;99.90;;;;;;4976550;28;20248;-78
2021/03/19 11:52:38;;;;;;;0.30;0.30;;;8.40;99.90;;;;;;4976192;28;20205;-78
2021/03/19 11:55:05;;;;;;;0.30;0.30;;;8.40;99.90;;;;;;4976153;28;20629;-76
2021/03/19 11:57:31;;;;;;;0.30;0.30;;;8.40;99.90;;;;;;4975859;28;20197;-78
2021/03/19 11:59:56;;;;;;;0.17;0.17;;;8.60;99.90;;;;;;4985478;28;20181;-78
2021/03/19 12:02:39;;;;;;;0.38;0.38;;;8.60;99.90;;;;;;4997062;28;20181;-80
2021/03/19 12:05:07;;;;;;;0.60;0.60;;;8.60;99.90;;;;;;4980320;28;20196;-81
2021/03/19 12:07:33;;;;;;;0.50;0.50;;;8.70;99.90;;;;;;4989828;28;20221;-81
2021/03/19 12:09:58;;;;;;;0.20;0.20;;;8.60;99.90;;;;;;4959368;28;20182;-81
2021/03/19 12:12:25;;;;;;;0.20;0.20;;;8.60;99.90;;;;;;4980751;28;20230;-79
2021/03/19 12:14:52;;;;;;;0.10;0.10;;;8.60;99.90;;;;;;4994414;28;20774;-80
2021/03/19 12:17:20;;;;;;;0.40;0.40;;;8.50;99.90;;;;;;4996038;28;20271;-79
2021/03/19 12:19:46;;;;;;;0.20;0.20;;;8.50;99.90;;;;;;4994709;28;20170;-75
2021/03/19 12:22:12;;;;;;;0.30;0.30;;;8.80;99.90;;;;;;4995603;28;20157;-75
2021/03/19 12:24:37;;;;;;;0.30;0.30;;;8.90;99.90;;;;;;4998842;28;20216;-76
2021/03/19 12:27:05;;;;;;;0.20;0.20;;;8.80;99.90;;;;;;5015866;28;20225;-75
2021/03/19 12:29:31;;;;;;;0.30;0.30;;;9.10;99.90;;;;;;5015006;28;20195;-76
2021/03/19 12:31:57;;;;;;;0.30;0.30;;;9.00;99.90;;;;;;5003124;28;20209;-84
2021/03/19 12:34:23;;;;;;;0.28;0.28;;;9.00;99.90;;;;;;4996066;28;20157;-83
2021/03/19 12:36:50;;;;;;;0.20;0.20;;;9.00;99.90;;;;;;4996052;28;20185;-84
2021/03/19 12:39:18;;;;;;;0.73;0.73;;;8.90;99.90;;;;;;4978246;28;20169;-78
2021/03/19 12:41:44;;;;;;;12.40;0.82;;;8.80;99.90;;;;;;4996103;28;20177;-78
2021/03/19 12:44:09;;;;;;;0.20;0.20;;;8.70;99.90;;;;;;4996131;28;20515;-81
2021/03/19 12:46:37;;;;;;;2.28;1.30;;;8.80;99.90;;;;;;4980215;28;20186;-85
2021/03/19 12:49:04;;;;;;;0.20;0.20;;;8.90;99.90;;;;;;5000729;28;20188;-83
2021/03/19 12:51:31;;;;;;;0.20;0.20;;;9.00;99.90;;;;;;4986749;28;20165;-85
2021/03/19 12:53:57;;;;;;;0.40;0.40;;;8.90;99.90;;;;;;5009752;23;20237;-73
2021/03/19 12:56:23;;;;;;;2.80;0.65;;;8.80;99.90;;;;;;4994090;28;20177;-76
2021/03/19 12:58:49;;;;;;;2.65;0.77;;;8.80;99.90;;;;;;4994130;28;20170;-73
2021/03/19 13:01:19;;;;;;;1.52;1.23;;;8.90;99.90;;;;;;4994273;28;20197;-73
2021/03/19 13:03:46;;;;;;;0.30;0.30;;;9.10;99.90;;;;;;4994559;28;20161;-73
2021/03/19 13:06:11;;;;;;;0.22;0.22;;;9.10;99.90;;;;;;4976681;28;20575;-75
2021/03/19 13:08:37;;;;;;;0.40;0.40;;;9.20;99.90;;;;;;4976070;28;20209;-74
2021/03/19 13:11:03;;;;;;;0.25;0.25;;;9.20;99.90;;;;;;4994141;28;20511;-74
2021/03/19 13:13:29;;;;;;;0.30;0.30;;;9.30;99.90;;;;;;4994323;28;20180;-73
2021/03/19 13:15:55;;;;;;;0.57;0.57;;;9.30;99.90;;;;;;4994214;28;20170;-73
2021/03/19 13:18:21;;;;;;;0.63;0.63;;;9.30;99.90;;;;;;4976626;28;20188;-74
2021/03/19 13:20:46;;;;;;;0.22;0.22;;;9.40;99.90;;;;;;4993874;28;20157;-73
2021/03/19 13:23:14;;;;;;;0.30;0.30;;;9.50;99.90;;;;;;4994047;28;20185;-73
2021/03/19 13:25:43;;;;;;;0.30;0.30;;;9.50;99.30;;;;;;4994246;28;20173;-73
2021/03/19 13:28:16;;;;;;;0.63;0.63;;;9.40;99.70;;;;;;4993945;28;20209;-73
2021/03/19 13:30:43;;;;;;;0.30;0.30;;;9.40;99.90;;;;;;4993934;28;20195;-73
2021/03/19 13:33:09;;;;;;;0.20;0.20;;;9.40;99.90;;;;;;4993805;28;20184;-73
2021/03/19 13:35:38;;;;;;;0.30;0.30;;;9.30;99.90;;;;;;4993865;28;20176;-73